<?xml version='1.0' encoding='UTF-8'?><gpx version="1.1" creator="JPX - https://github.com/jenetics/jpx" xmlns="http://www.topografix.com/GPX/1/1"><trk><trkseg><trkpt lat="40.9766784" lon="14.2672793"><ele>24.0</ele><time>2026-04-30T18:47:49.976Z</time></trkpt><trkpt lat="40.9766275" lon="14.267399"><ele>24.0</ele><time>2026-04-30T18:47:51.976Z</time></trkpt><trkpt lat="40.9765775" lon="14.2675097"><ele>24.0</ele><time>2026-04-30T18:47:53.976Z</time></trkpt><trkpt lat="40.9765221" lon="14.2676379"><ele>24.0</ele><time>2026-04-30T18:47:55.976Z</time></trkpt><trkpt lat="40.9764658" lon="14.2677862"><ele>24.0</ele><time>2026-04-30T18:47:57.977Z</time></trkpt><trkpt lat="40.9764356" lon="14.2678674"><ele>24.0</ele><time>2026-04-30T18:47:58.976Z</time></trkpt><trkpt lat="40.9764015" lon="14.2679432"><ele>24.0</ele><time>2026-04-30T18:47:59.977Z</time></trkpt><trkpt lat="40.9763366" lon="14.2680809"><ele>24.0</ele><time>2026-04-30T18:48:01.977Z</time></trkpt><trkpt lat="40.976269" lon="14.2682139"><ele>24.0</ele><time>2026-04-30T18:48:03.977Z</time></trkpt><trkpt lat="40.9762022" lon="14.2683425"><ele>24.0</ele><time>2026-04-30T18:48:05.977Z</time></trkpt><trkpt lat="40.9761368" lon="14.2684624"><ele>24.2</ele><time>2026-04-30T18:48:07.976Z</time></trkpt><trkpt lat="40.9760668" lon="14.2685601"><ele>24.4</ele><time>2026-04-30T18:48:09.977Z</time></trkpt><trkpt lat="40.9760091" lon="14.2686152"><ele>24.6</ele><time>2026-04-30T18:48:11.975Z</time></trkpt><trkpt lat="40.9759333" lon="14.2686581"><ele>24.8</ele><time>2026-04-30T18:48:14.975Z</time></trkpt><trkpt lat="40.9758581" lon="14.2687444"><ele>25.0</ele><time>2026-04-30T18:48:16.976Z</time></trkpt><trkpt lat="40.975782" lon="14.2688858"><ele>25.166666666666668</ele><time>2026-04-30T18:48:18.976Z</time></trkpt><trkpt lat="40.9757481" lon="14.2689644"><ele>25.333333333333336</ele><time>2026-04-30T18:48:19.975Z</time></trkpt><trkpt lat="40.9757072" lon="14.2690414"><ele>25.5</ele><time>2026-04-30T18:48:20.976Z</time></trkpt><trkpt lat="40.9756663" lon="14.2691242"><ele>25.666666666666664</ele><time>2026-04-30T18:48:21.975Z</time></trkpt><trkpt lat="40.9756295" lon="14.2692065"><ele>25.833333333333332</ele><time>2026-04-30T18:48:22.977Z</time></trkpt><trkpt lat="40.9755861" lon="14.2693089"><ele>26.0</ele><time>2026-04-30T18:48:23.976Z</time></trkpt><trkpt lat="40.9755479" lon="14.2694169"><ele>26.0</ele><time>2026-04-30T18:48:24.975Z</time></trkpt><trkpt lat="40.9755056" lon="14.2695186"><ele>26.0</ele><time>2026-04-30T18:48:25.978Z</time></trkpt><trkpt lat="40.9754596" lon="14.2696348"><ele>26.0</ele><time>2026-04-30T18:48:26.977Z</time></trkpt><trkpt lat="40.9754061" lon="14.2697502"><ele>26.0</ele><time>2026-04-30T18:48:27.975Z</time></trkpt><trkpt lat="40.9753615" lon="14.2698621"><ele>26.0</ele><time>2026-04-30T18:48:28.975Z</time></trkpt><trkpt lat="40.9753135" lon="14.2699766"><ele>26.4</ele><time>2026-04-30T18:48:29.978Z</time></trkpt><trkpt lat="40.9752654" lon="14.2700864"><ele>26.8</ele><time>2026-04-30T18:48:30.977Z</time></trkpt><trkpt lat="40.9752141" lon="14.2701985"><ele>27.199999999999996</ele><time>2026-04-30T18:48:31.975Z</time></trkpt><trkpt lat="40.9751657" lon="14.2703177"><ele>27.599999999999998</ele><time>2026-04-30T18:48:32.976Z</time></trkpt><trkpt lat="40.9751226" lon="14.2704354"><ele>28.0</ele><time>2026-04-30T18:48:33.975Z</time></trkpt><trkpt lat="40.9750851" lon="14.2705583"><ele>28.0</ele><time>2026-04-30T18:48:34.976Z</time></trkpt><trkpt lat="40.9750469" lon="14.2706774"><ele>27.999999999999996</ele><time>2026-04-30T18:48:35.977Z</time></trkpt><trkpt lat="40.9750171" lon="14.270809"><ele>27.999999999999996</ele><time>2026-04-30T18:48:36.975Z</time></trkpt><trkpt lat="40.9749854" lon="14.270916"><ele>28.0</ele><time>2026-04-30T18:48:37.975Z</time></trkpt><trkpt lat="40.9749534" lon="14.2710216"><ele>28.0</ele><time>2026-04-30T18:48:38.976Z</time></trkpt><trkpt lat="40.9749213" lon="14.2711329"><ele>27.833333333333336</ele><time>2026-04-30T18:48:39.976Z</time></trkpt><trkpt lat="40.974894" lon="14.2712554"><ele>27.666666666666668</ele><time>2026-04-30T18:48:40.976Z</time></trkpt><trkpt lat="40.9748655" lon="14.2713641"><ele>27.5</ele><time>2026-04-30T18:48:41.975Z</time></trkpt><trkpt lat="40.9748371" lon="14.2714689"><ele>27.333333333333336</ele><time>2026-04-30T18:48:42.976Z</time></trkpt><trkpt lat="40.9748103" lon="14.2715691"><ele>27.166666666666668</ele><time>2026-04-30T18:48:43.977Z</time></trkpt><trkpt lat="40.9747897" lon="14.2716672"><ele>27.0</ele><time>2026-04-30T18:48:44.975Z</time></trkpt><trkpt lat="40.9747451" lon="14.2718048"><ele>27.0</ele><time>2026-04-30T18:48:46.977Z</time></trkpt><trkpt lat="40.9747148" lon="14.2718913"><ele>27.0</ele><time>2026-04-30T18:48:48.975Z</time></trkpt><trkpt lat="40.974682" lon="14.2719801"><ele>27.0</ele><time>2026-04-30T18:48:54.957Z</time></trkpt><trkpt lat="40.9746394" lon="14.2720894"><ele>27.0</ele><time>2026-04-30T18:48:56.953Z</time></trkpt><trkpt lat="40.9745825" lon="14.2721963"><ele>27.0</ele><time>2026-04-30T18:48:58.953Z</time></trkpt><trkpt lat="40.9745311" lon="14.272315"><ele>27.0</ele><time>2026-04-30T18:49:00.953Z</time></trkpt><trkpt lat="40.974466" lon="14.272468"><ele>26.833333333333332</ele><time>2026-04-30T18:49:02.953Z</time></trkpt><trkpt lat="40.9744235" lon="14.272562"><ele>26.666666666666664</ele><time>2026-04-30T18:49:03.953Z</time></trkpt><trkpt lat="40.9743796" lon="14.2726564"><ele>26.5</ele><time>2026-04-30T18:49:04.953Z</time></trkpt><trkpt lat="40.9743336" lon="14.2727474"><ele>26.333333333333332</ele><time>2026-04-30T18:49:05.953Z</time></trkpt><trkpt lat="40.9742926" lon="14.2728327"><ele>26.166666666666664</ele><time>2026-04-30T18:49:06.953Z</time></trkpt><trkpt lat="40.9742499" lon="14.2729262"><ele>26.0</ele><time>2026-04-30T18:49:07.953Z</time></trkpt><trkpt lat="40.9742135" lon="14.2730119"><ele>26.166666666666664</ele><time>2026-04-30T18:49:08.953Z</time></trkpt><trkpt lat="40.974175" lon="14.2730942"><ele>26.333333333333332</ele><time>2026-04-30T18:49:09.953Z</time></trkpt><trkpt lat="40.9741367" lon="14.2731763"><ele>26.5</ele><time>2026-04-30T18:49:10.953Z</time></trkpt><trkpt lat="40.9741006" lon="14.2732602"><ele>26.666666666666664</ele><time>2026-04-30T18:49:11.953Z</time></trkpt><trkpt lat="40.9740672" lon="14.2733429"><ele>26.833333333333332</ele><time>2026-04-30T18:49:12.952Z</time></trkpt><trkpt lat="40.9740183" lon="14.2734599"><ele>27.0</ele><time>2026-04-30T18:49:14.953Z</time></trkpt><trkpt lat="40.9739762" lon="14.2735412"><ele>27.0</ele><time>2026-04-30T18:49:16.953Z</time></trkpt><trkpt lat="40.9739169" lon="14.2735699"><ele>27.0</ele><time>2026-04-30T18:49:18.953Z</time></trkpt><trkpt lat="40.9738293" lon="14.2735192"><ele>27.0</ele><time>2026-04-30T18:49:20.952Z</time></trkpt><trkpt lat="40.9737763" lon="14.2734732"><ele>27.0</ele><time>2026-04-30T18:49:21.953Z</time></trkpt><trkpt lat="40.9737168" lon="14.2734226"><ele>27.0</ele><time>2026-04-30T18:49:22.953Z</time></trkpt><trkpt lat="40.9736471" lon="14.2733686"><ele>27.0</ele><time>2026-04-30T18:49:23.952Z</time></trkpt><trkpt lat="40.973576" lon="14.2733147"><ele>27.0</ele><time>2026-04-30T18:49:24.953Z</time></trkpt><trkpt lat="40.9735011" lon="14.2732567"><ele>27.0</ele><time>2026-04-30T18:49:25.953Z</time></trkpt><trkpt lat="40.9734257" lon="14.2731978"><ele>27.0</ele><time>2026-04-30T18:49:26.952Z</time></trkpt><trkpt lat="40.9733545" lon="14.273141"><ele>27.0</ele><time>2026-04-30T18:49:27.953Z</time></trkpt><trkpt lat="40.9732889" lon="14.2730874"><ele>27.0</ele><time>2026-04-30T18:49:28.953Z</time></trkpt><trkpt lat="40.9732306" lon="14.273044"><ele>27.0</ele><time>2026-04-30T18:49:29.952Z</time></trkpt><trkpt lat="40.9731436" lon="14.2729792"><ele>26.833333333333332</ele><time>2026-04-30T18:49:31.952Z</time></trkpt><trkpt lat="40.9730584" lon="14.2729601"><ele>26.666666666666664</ele><time>2026-04-30T18:49:34.953Z</time></trkpt><trkpt lat="40.9730173" lon="14.2730338"><ele>26.5</ele><time>2026-04-30T18:49:36.953Z</time></trkpt><trkpt lat="40.9729764" lon="14.2731236"><ele>26.333333333333332</ele><time>2026-04-30T18:49:38.953Z</time></trkpt><trkpt lat="40.9729342" lon="14.2731979"><ele>26.166666666666664</ele><time>2026-04-30T18:49:40.953Z</time></trkpt><trkpt lat="40.97287" lon="14.2732168"><ele>26.0</ele><time>2026-04-30T18:49:42.953Z</time></trkpt><trkpt lat="40.9727896" lon="14.2731602"><ele>25.833333333333332</ele><time>2026-04-30T18:49:44.953Z</time></trkpt><trkpt lat="40.9726897" lon="14.2730768"><ele>25.666666666666664</ele><time>2026-04-30T18:49:46.953Z</time></trkpt><trkpt lat="40.9726288" lon="14.2730323"><ele>25.5</ele><time>2026-04-30T18:49:47.953Z</time></trkpt><trkpt lat="40.9725692" lon="14.2729884"><ele>25.333333333333336</ele><time>2026-04-30T18:49:48.953Z</time></trkpt><trkpt lat="40.9725051" lon="14.2729386"><ele>25.166666666666668</ele><time>2026-04-30T18:49:49.953Z</time></trkpt><trkpt lat="40.9724414" lon="14.2728874"><ele>25.0</ele><time>2026-04-30T18:49:50.953Z</time></trkpt><trkpt lat="40.972377" lon="14.272834"><ele>25.333333333333336</ele><time>2026-04-30T18:49:51.953Z</time></trkpt><trkpt lat="40.9723092" lon="14.2727799"><ele>25.666666666666668</ele><time>2026-04-30T18:49:52.953Z</time></trkpt><trkpt lat="40.9722448" lon="14.2727323"><ele>26.0</ele><time>2026-04-30T18:49:53.953Z</time></trkpt><trkpt lat="40.9721791" lon="14.2726868"><ele>26.333333333333336</ele><time>2026-04-30T18:49:54.953Z</time></trkpt><trkpt lat="40.9721082" lon="14.2726343"><ele>26.666666666666668</ele><time>2026-04-30T18:49:55.952Z</time></trkpt><trkpt lat="40.9720392" lon="14.2725781"><ele>27.0</ele><time>2026-04-30T18:49:56.953Z</time></trkpt><trkpt lat="40.9719693" lon="14.2725288"><ele>27.0</ele><time>2026-04-30T18:49:57.953Z</time></trkpt><trkpt lat="40.9718989" lon="14.2724786"><ele>27.0</ele><time>2026-04-30T18:49:58.953Z</time></trkpt><trkpt lat="40.9718318" lon="14.2724283"><ele>27.0</ele><time>2026-04-30T18:49:59.953Z</time></trkpt><trkpt lat="40.9717678" lon="14.2723809"><ele>27.0</ele><time>2026-04-30T18:50:00.953Z</time></trkpt><trkpt lat="40.9717104" lon="14.2723345"><ele>27.0</ele><time>2026-04-30T18:50:01.953Z</time></trkpt><trkpt lat="40.9716558" lon="14.2722907"><ele>27.0</ele><time>2026-04-30T18:50:02.953Z</time></trkpt><trkpt lat="40.9715557" lon="14.2722095"><ele>27.0</ele><time>2026-04-30T18:50:04.953Z</time></trkpt><trkpt lat="40.971473" lon="14.2721439"><ele>27.0</ele><time>2026-04-30T18:50:06.953Z</time></trkpt><trkpt lat="40.9714027" lon="14.2720911"><ele>27.0</ele><time>2026-04-30T18:50:08.953Z</time></trkpt><trkpt lat="40.9713383" lon="14.2720453"><ele>27.0</ele><time>2026-04-30T18:50:11.953Z</time></trkpt><trkpt lat="40.9712797" lon="14.2719968"><ele>27.0</ele><time>2026-04-30T18:50:15.953Z</time></trkpt></trkseg></trk></gpx>